Skip to main content.
Our real time weather data display below is updated continuously via our 24/7 live data feed.
 TIME   TEMPERATURE   WINDSPEED   DIRECTION   HUMIDITY   BAROMETER   RAINFALL 
9:15 13.0°C (55.4°F) 35.2 kmh (21.9 mph) NNW 50% 1015.9hPa (30.00 inHg) 1.8mm (0.07 in.)
8:15 13.0°C (55.4 °F) 33.3 kmh (20.7 mph) NNW 54% 1015.9hPa (30.00 inHg) 1.8mm (0.07 in.)
7:15 13.0°C (55.4 °F) 37.0 kmh (23.0 mph) NNW 54% 1014.9hPa (29.97 inHg) 1.8mm (0.07 in.)
6:15 14.0°C (57.2 °F) 42.6 kmh (26.5 mph) NNW 54% 1013.9hPa (29.94 inHg) 1.8mm (0.07 in.)
5:15 14.0°C (57.2 °F) 46.3 kmh (28.8 mph) NNW 62% 1013.9hPa (29.94 inHg) 1.8mm (0.07 in.)
4:15 15.0°C (59.0 °F) 37.0 kmh (23.0 mph) NNW 67% 1012.9hPa (29.91 inHg) 1.8mm (0.07 in.)
3:15 16.0°C (60.8 °F) 46.3 kmh (28.8 mph) NNW 67% 1011.9hPa (29.88 inHg) 1.8mm (0.07 in.)
2:15 17.0°C (62.6 °F) 38.9 kmh (24.2 mph) NNW 67% 1010.8hPa (29.85 inHg) 1.8mm (0.07 in.)
1:15 17.0°C (62.6 °F) 29.6 kmh (18.4 mph) NNW 67% 1010.8hPa (29.85 inHg) 1.8mm (0.07 in.)
12:15 17.0°C (62.6 °F) 25.9 kmh (16.1 mph) NNW 67% 1010.8hPa (29.85 inHg) 1.8mm (0.07 in.)
11:15 16.0°C (60.8 °F) 22.2 kmh (13.8 mph) NNW 72% 1010.8hPa (29.85 inHg) 1.8mm (0.07 in.)
10:15 15.0°C (59.0 °F) 16.7 kmh (10.4 mph) NW 72% 1010.8hPa (29.85 inHg) 1.8mm (0.07 in.)
9:15 14.0°C (57.2 °F) 9.3 kmh (5.8 mph) WNW 71% 1010.2hPa (29.83 inHg) 1.8mm (0.07 in.)
8:15 11.0°C (51.8 °F) 9.3 kmh (5.8 mph) W 87% 1009.1hPa (29.80 inHg) 1.8mm (0.07 in.)
7:15 11.0°C (51.8 °F) 5.6 kmh (3.5 mph) W 81% 1009.1hPa (29.80 inHg) 0.0mm (0.00 in.)
6:15 11.0°C (51.8 °F) 5.6 kmh (3.5 mph) ESE 81% 1008.1hPa (29.77 inHg) 0.0mm (0.00 in.)
5:15 12.0°C (53.6 °F) 7.4 kmh (4.6 mph) SSE 81% 1008.1hPa (29.77 inHg) 0.0mm (0.00 in.)
4:15 12.0°C (53.6 °F) 5.6 kmh (3.5 mph) S 76% 1008.1hPa (29.77 inHg) 0.0mm (0.00 in.)
3:15 13.0°C (55.4 °F) 9.3 kmh (5.8 mph) WSW 76% 1009.1hPa (29.80 inHg) 0.0mm (0.00 in.)
2:15 14.0°C (57.2 °F) 11.1 kmh (6.9 mph) W 67% 1009.1hPa (29.80 inHg) 0.0mm (0.00 in.)
1:15 15.0°C (59.0 °F) 24.1 kmh (15.0 mph) WSW 51% 1009.1hPa (29.80 inHg) 0.0mm (0.00 in.)
12:15 15.0°C (59.0 °F) 16.7 kmh (10.4 mph) W 62% 1008.1hPa (29.77 inHg) 0.0mm (0.00 in.)
11:15 15.0°C (59.0 °F) 18.5 kmh (11.5 mph) WSW 62% 1008.1hPa (29.77 inHg) 0.0mm (0.00 in.)
10:15 15.0°C (59.0 °F) 20.4 kmh (12.7 mph) WSW 62% 1008.1hPa (29.77 inHg) 0.0mm (0.00 in.)